createdAt,value
2017-09-23T00:01:13.450Z,3.40
2017-09-23T00:03:41.208Z,4.53
2017-09-23T00:06:08.867Z,4.67
2017-09-23T00:08:36.554Z,4.40
2017-09-23T00:11:04.293Z,4.67
2017-09-23T00:13:32.909Z,4.67
2017-09-23T00:16:00.565Z,4.50
2017-09-23T00:18:28.313Z,4.83
2017-09-23T00:20:55.974Z,4.00
2017-09-23T00:23:23.642Z,4.63
2017-09-23T00:25:51.410Z,4.33
2017-09-23T00:28:19.107Z,4.73
2017-09-23T00:30:46.773Z,4.27
2017-09-23T00:33:14.501Z,4.00
2017-09-23T00:35:42.169Z,3.90
2017-09-23T00:38:09.889Z,3.40
2017-09-23T00:40:37.590Z,3.53
2017-09-23T00:43:05.249Z,3.50
2017-09-23T00:45:32.931Z,3.03
2017-09-23T00:48:00.669Z,3.03
2017-09-23T00:53:09.782Z,5.60
2017-09-23T00:55:37.450Z,4.37
2017-09-23T00:58:05.136Z,3.53
2017-09-23T01:00:33.841Z,3.90
2017-09-23T01:03:01.525Z,4.47
2017-09-23T01:05:29.234Z,4.57
2017-09-23T01:07:57.805Z,3.60
2017-09-23T01:10:25.477Z,3.97
2017-09-23T01:12:53.157Z,4.93
2017-09-23T01:15:20.923Z,4.30
2017-09-23T01:17:48.664Z,4.50
2017-09-23T01:20:16.276Z,4.80
2017-09-23T01:22:44.366Z,4.23
2017-09-23T01:25:12.029Z,4.07
2017-09-23T01:27:39.702Z,4.20
2017-09-23T01:30:07.465Z,4.17
2017-09-23T01:32:35.152Z,4.83
2017-09-23T01:35:03.651Z,4.10
2017-09-23T01:37:31.400Z,3.80
2017-09-23T01:40:00.027Z,4.30
2017-09-23T01:42:27.688Z,4.17
2017-09-23T01:44:55.433Z,3.67
2017-09-23T01:47:23.109Z,3.73
2017-09-23T01:49:50.777Z,4.17
2017-09-23T01:52:18.527Z,4.00
2017-09-23T01:54:46.204Z,4.70
2017-09-23T01:57:13.867Z,4.30
2017-09-23T01:59:41.592Z,4.37
2017-09-23T02:02:09.269Z,3.80
2017-09-23T02:04:36.949Z,4.37
2017-09-23T02:07:04.686Z,4.30
2017-09-23T02:09:32.337Z,3.70
2017-09-23T02:12:00.810Z,3.20
2017-09-23T02:14:28.542Z,3.57
2017-09-23T02:19:35.400Z,5.03
2017-09-23T02:22:03.073Z,3.90
2017-09-23T02:24:30.743Z,3.70
2017-09-23T02:26:58.471Z,3.77
2017-09-23T02:29:26.139Z,4.27
2017-09-23T02:31:53.812Z,4.40
2017-09-23T02:34:21.567Z,4.03
2017-09-23T02:36:49.240Z,4.97
2017-09-23T02:39:16.911Z,4.50
2017-09-23T02:41:44.649Z,4.50
2017-09-23T02:44:12.325Z,5.20
2017-09-23T02:46:39.996Z,5.20
2017-09-23T02:49:07.741Z,5.37
2017-09-23T02:51:35.416Z,4.80
2017-09-23T02:54:03.089Z,4.27
2017-09-23T02:56:30.822Z,4.73
2017-09-23T02:58:58.481Z,4.77
2017-09-23T03:01:26.156Z,4.60
2017-09-23T03:03:53.937Z,3.87
2017-09-23T03:06:21.610Z,3.93
2017-09-23T03:08:49.281Z,4.57
2017-09-23T03:11:17.004Z,4.33
2017-09-23T03:13:44.667Z,4.80
2017-09-23T03:16:12.339Z,4.93
2017-09-23T03:18:40.071Z,4.70
2017-09-23T03:21:07.731Z,4.37
2017-09-23T03:23:35.409Z,4.20
2017-09-23T03:26:03.153Z,4.57
2017-09-23T03:28:30.833Z,4.83
2017-09-23T03:30:58.508Z,4.70
2017-09-23T03:33:26.247Z,4.90
2017-09-23T03:35:53.925Z,4.43
2017-09-23T03:38:21.601Z,5.27
2017-09-23T03:40:49.330Z,5.27
2017-09-23T03:43:16.994Z,5.30
2017-09-23T03:48:23.851Z,6.62
2017-09-23T03:50:52.463Z,4.97
2017-09-23T03:53:20.133Z,4.60
2017-09-23T03:55:47.880Z,4.70
2017-09-23T03:58:15.552Z,5.03
2017-09-23T04:00:43.220Z,5.60
2017-09-23T04:03:10.953Z,5.23
2017-09-23T04:05:38.618Z,4.80
2017-09-23T04:08:06.289Z,4.93
2017-09-23T04:10:34.052Z,4.77
2017-09-23T04:13:02.453Z,4.50
2017-09-23T04:15:30.132Z,4.90
2017-09-23T04:17:58.725Z,5.00
2017-09-23T04:20:26.404Z,4.63
2017-09-23T04:22:54.069Z,4.60
2017-09-23T04:25:21.807Z,4.80
2017-09-23T04:27:49.477Z,4.60
2017-09-23T04:30:17.123Z,4.50
2017-09-23T04:32:44.792Z,5.40
2017-09-23T04:35:12.432Z,5.40
2017-09-23T04:37:40.043Z,5.63
2017-09-23T04:40:07.722Z,5.03
2017-09-23T04:42:35.339Z,5.60
2017-09-23T04:45:02.956Z,5.10
2017-09-23T04:47:30.648Z,5.43
2017-09-23T04:49:58.262Z,5.77
2017-09-23T04:52:25.876Z,6.07
2017-09-23T04:54:53.552Z,5.27
2017-09-23T04:57:21.208Z,5.07
2017-09-23T04:59:48.823Z,4.40
2017-09-23T05:02:16.504Z,4.63
2017-09-23T05:04:44.115Z,4.90
2017-09-23T05:09:50.885Z,6.37
2017-09-23T05:12:18.499Z,5.70
2017-09-23T05:14:46.110Z,5.00
2017-09-23T05:17:13.786Z,5.40
2017-09-23T05:19:41.399Z,5.07
2017-09-23T05:22:09.010Z,5.00
2017-09-23T05:24:36.680Z,5.97
2017-09-23T05:27:04.292Z,5.57
2017-09-23T05:29:31.902Z,4.93
2017-09-23T05:31:59.569Z,4.63
2017-09-23T05:34:27.183Z,5.90
2017-09-23T05:36:54.805Z,6.10
2017-09-23T05:42:02.080Z,6.32
2017-09-23T05:44:29.776Z,4.93
2017-09-23T05:46:57.386Z,5.30
2017-09-23T05:49:25.000Z,4.77
2017-09-23T05:51:52.699Z,5.10
2017-09-23T05:54:20.317Z,5.57
2017-09-23T05:56:47.928Z,5.23
2017-09-23T05:59:15.631Z,5.47
2017-09-23T06:01:43.245Z,6.17
2017-09-23T06:04:10.857Z,5.93
2017-09-23T06:06:38.557Z,5.17
2017-09-23T06:09:06.173Z,5.00
2017-09-23T06:11:33.786Z,5.73
2017-09-23T06:14:01.505Z,5.90
2017-09-23T06:16:29.124Z,4.57
2017-09-23T06:18:56.739Z,5.07
2017-09-23T06:21:24.418Z,7.30
2017-09-23T06:23:52.037Z,7.53
2017-09-23T06:26:19.653Z,7.17
2017-09-23T06:28:47.346Z,8.17
2017-09-23T06:31:14.966Z,6.20
2017-09-23T06:33:42.587Z,6.47
2017-09-23T06:36:10.264Z,6.60
2017-09-23T06:38:38.700Z,6.17
2017-09-23T06:41:06.307Z,5.40
2017-09-23T06:43:33.979Z,5.80
2017-09-23T06:46:01.599Z,5.47
2017-09-23T06:48:29.226Z,5.03
2017-09-23T06:50:56.920Z,5.13
2017-09-23T06:53:24.538Z,4.70
2017-09-23T06:58:31.305Z,6.15
2017-09-23T07:00:58.924Z,5.33
2017-09-23T07:03:26.537Z,4.73
2017-09-23T07:05:54.224Z,5.00
2017-09-23T07:08:21.844Z,5.10
2017-09-23T07:10:49.459Z,5.07
2017-09-23T07:13:17.132Z,6.20
2017-09-23T07:15:44.751Z,5.23
2017-09-23T07:18:12.372Z,5.20
2017-09-23T07:20:40.059Z,4.90
2017-09-23T07:23:07.678Z,4.73
2017-09-23T07:25:35.297Z,5.40
2017-09-23T07:28:03.000Z,5.07
2017-09-23T07:30:30.620Z,4.87
2017-09-23T07:32:58.235Z,5.30
2017-09-23T07:35:25.910Z,5.43
2017-09-23T07:37:53.532Z,4.43
2017-09-23T07:40:21.169Z,4.33
2017-09-23T07:42:48.850Z,5.70
2017-09-23T07:45:17.282Z,4.63
2017-09-23T07:47:44.903Z,4.80
2017-09-23T07:50:12.568Z,4.60
2017-09-23T07:52:40.188Z,4.77
2017-09-23T07:55:07.811Z,4.90
2017-09-23T07:57:35.514Z,5.30
2017-09-23T08:00:03.129Z,4.87
2017-09-23T08:02:30.750Z,4.90
2017-09-23T08:04:59.253Z,4.50
2017-09-23T08:07:26.875Z,5.23
2017-09-23T08:12:33.659Z,5.95
2017-09-23T08:15:01.264Z,5.37
2017-09-23T08:17:28.886Z,4.93
2017-09-23T08:19:56.556Z,5.27
2017-09-23T08:22:24.171Z,5.20
2017-09-23T08:24:51.797Z,5.00
2017-09-23T08:27:19.472Z,4.77
2017-09-23T08:29:47.095Z,4.60
2017-09-23T08:32:14.696Z,4.73
2017-09-23T08:34:42.368Z,4.60
2017-09-23T08:37:09.986Z,3.40
2017-09-23T08:39:38.560Z,4.53
2017-09-23T08:42:06.246Z,4.43
2017-09-23T08:44:33.868Z,4.73
2017-09-23T08:47:01.483Z,4.87
2017-09-23T08:49:29.166Z,4.60
2017-09-23T08:51:56.781Z,4.60
2017-09-23T08:54:24.404Z,5.07
2017-09-23T08:56:52.086Z,5.00
2017-09-23T08:59:19.705Z,4.57
2017-09-23T09:01:47.325Z,4.87
2017-09-23T09:04:15.002Z,4.73
2017-09-23T09:06:42.626Z,5.40
2017-09-23T09:09:10.246Z,4.60
2017-09-23T09:11:38.052Z,4.80
2017-09-23T09:14:05.667Z,4.80
2017-09-23T09:16:33.285Z,4.50
2017-09-23T09:19:01.152Z,4.47
2017-09-23T09:21:28.774Z,5.17
2017-09-23T09:23:56.384Z,3.87
2017-09-23T09:26:24.062Z,4.77
2017-09-23T09:28:51.698Z,4.30
2017-09-23T09:31:19.300Z,4.30
2017-09-23T09:33:46.974Z,4.57
2017-09-23T09:38:53.736Z,4.43
2017-09-23T09:41:21.367Z,4.47
2017-09-23T09:43:48.987Z,4.33
2017-09-23T09:46:16.674Z,3.97
2017-09-23T09:48:44.285Z,3.93
2017-09-23T09:51:12.722Z,4.03
2017-09-23T09:53:40.404Z,4.10
2017-09-23T09:56:08.015Z,4.10
2017-09-23T09:58:35.630Z,4.47
2017-09-23T10:01:03.328Z,4.70
2017-09-23T10:03:30.955Z,4.50
2017-09-23T10:05:58.590Z,3.93
2017-09-23T10:08:27.110Z,4.37
2017-09-23T10:10:54.727Z,4.00
2017-09-23T10:13:34.235Z,4.40
2017-09-23T10:16:01.859Z,3.77
2017-09-23T10:18:29.477Z,4.20
2017-09-23T10:20:57.208Z,4.63
2017-09-23T10:23:24.830Z,4.47
2017-09-23T10:25:52.450Z,5.27
2017-09-23T10:28:20.156Z,4.43
2017-09-23T10:30:47.780Z,3.97
2017-09-23T10:33:15.400Z,4.23
2017-09-23T10:35:43.070Z,4.30
2017-09-23T10:38:10.691Z,4.00
2017-09-23T10:40:38.324Z,3.47
2017-09-23T10:43:06.022Z,4.70
2017-09-23T10:45:33.638Z,4.10
2017-09-23T10:48:01.264Z,3.70
2017-09-23T10:50:28.936Z,4.00
2017-09-23T10:52:56.565Z,4.93
2017-09-23T10:55:24.185Z,3.77
2017-09-23T10:57:51.887Z,4.57
2017-09-23T11:00:19.507Z,4.30
2017-09-23T11:02:47.130Z,4.47
2017-09-23T11:07:55.983Z,4.75
2017-09-23T11:10:23.691Z,5.37
2017-09-23T11:12:51.316Z,4.30
2017-09-23T11:15:19.820Z,4.47
2017-09-23T11:17:47.497Z,4.40
2017-09-23T11:20:16.064Z,4.63
2017-09-23T11:22:43.687Z,4.57
2017-09-23T11:25:12.225Z,4.80
2017-09-23T11:27:39.828Z,4.60
2017-09-23T11:30:07.451Z,4.80
2017-09-23T11:32:35.120Z,4.90
2017-09-23T11:35:02.743Z,4.53
2017-09-23T11:37:30.363Z,4.13
2017-09-23T11:39:58.064Z,3.93
2017-09-23T11:42:26.444Z,4.07
2017-09-23T11:44:54.077Z,4.00
2017-09-23T11:47:21.770Z,4.10
2017-09-23T11:49:49.381Z,4.07
2017-09-23T11:52:17.005Z,3.27
2017-09-23T11:54:44.699Z,4.17
2017-09-23T11:57:12.332Z,3.57
2017-09-23T11:59:39.977Z,3.73
2017-09-23T12:02:07.697Z,4.10
2017-09-23T12:04:35.304Z,4.10
2017-09-23T12:07:02.922Z,3.47
2017-09-23T12:09:30.589Z,3.37
2017-09-23T12:11:58.208Z,3.00
2017-09-23T12:14:25.828Z,2.60
2017-09-23T12:16:53.519Z,2.80
2017-09-23T12:19:21.138Z,3.37
2017-09-23T12:21:48.765Z,3.30
2017-09-23T12:24:16.439Z,3.30
2017-09-23T12:26:44.059Z,3.20
2017-09-23T12:29:11.673Z,2.90
2017-09-23T12:31:39.383Z,3.20
2017-09-23T12:36:46.142Z,3.47
2017-09-23T12:39:13.763Z,3.23
2017-09-23T12:41:41.372Z,3.30
2017-09-23T12:44:09.049Z,2.97
2017-09-23T12:46:36.663Z,2.80
2017-09-23T12:49:04.284Z,3.37
2017-09-23T12:51:32.818Z,3.67
2017-09-23T12:54:00.437Z,3.30
2017-09-23T12:56:29.000Z,3.37
2017-09-23T12:58:56.674Z,3.37
2017-09-23T13:01:25.156Z,3.80
2017-09-23T13:03:52.759Z,3.70
2017-09-23T13:06:20.474Z,3.60
2017-09-23T13:08:48.085Z,3.60
2017-09-23T13:11:15.707Z,3.50
2017-09-23T13:13:43.384Z,3.90
2017-09-23T13:16:11.012Z,3.40
2017-09-23T13:18:38.627Z,3.30
2017-09-23T13:21:06.323Z,3.33
2017-09-23T13:23:33.937Z,3.70
2017-09-23T13:26:01.559Z,3.63
2017-09-23T13:28:29.240Z,4.10
2017-09-23T13:30:56.856Z,3.90
2017-09-23T13:33:25.347Z,3.30
2017-09-23T13:35:53.034Z,3.47
2017-09-23T13:38:20.665Z,3.80
2017-09-23T13:40:48.291Z,3.57
2017-09-23T13:43:15.992Z,3.53
2017-09-23T13:45:43.616Z,3.73
2017-09-23T13:48:11.230Z,3.60
2017-09-23T13:50:38.902Z,3.10
2017-09-23T13:53:06.522Z,3.87
2017-09-23T13:58:13.307Z,3.45
2017-09-23T14:00:41.674Z,3.40
2017-09-23T14:03:09.298Z,3.60
2017-09-23T14:05:36.976Z,3.30
2017-09-23T14:08:04.594Z,3.90
2017-09-23T14:10:32.212Z,3.17
2017-09-23T14:12:59.897Z,3.63
2017-09-23T14:15:27.514Z,3.50
2017-09-23T14:17:55.949Z,4.20
2017-09-23T14:20:24.551Z,3.20
2017-09-23T14:22:52.166Z,3.20
2017-09-23T14:25:19.794Z,3.50
2017-09-23T14:27:47.494Z,3.67
2017-09-23T14:30:15.110Z,4.10
2017-09-23T14:32:43.616Z,3.60
2017-09-23T14:35:11.313Z,3.57
2017-09-23T14:37:38.927Z,3.60
2017-09-23T14:40:06.547Z,3.40
2017-09-23T14:42:34.225Z,3.40
2017-09-23T14:45:01.842Z,3.50
2017-09-23T14:47:29.460Z,4.03
2017-09-23T14:49:57.125Z,3.60
2017-09-23T14:52:24.739Z,4.03
2017-09-23T14:54:52.358Z,4.13
2017-09-23T14:57:20.054Z,3.30
2017-09-23T14:59:47.674Z,3.47
2017-09-23T15:02:15.282Z,3.70
2017-09-23T15:04:42.958Z,3.60
2017-09-23T15:07:10.576Z,4.20
2017-09-23T15:09:38.195Z,3.87
2017-09-23T15:12:05.994Z,3.40
2017-09-23T15:14:33.491Z,3.60
2017-09-23T15:17:01.109Z,3.37
2017-09-23T15:19:28.796Z,3.50
2017-09-23T15:21:56.417Z,3.27
2017-09-23T15:24:24.031Z,3.80
2017-09-23T15:29:30.803Z,3.78
2017-09-23T15:31:58.494Z,3.70
2017-09-23T15:34:26.115Z,4.07
2017-09-23T15:36:53.728Z,3.63
2017-09-23T15:39:21.435Z,3.50
2017-09-23T15:41:49.048Z,3.10
2017-09-23T15:44:17.478Z,3.60
2017-09-23T15:46:45.153Z,3.97
2017-09-23T15:49:12.774Z,3.43
2017-09-23T15:51:40.382Z,3.93
2017-09-23T15:54:08.085Z,4.53
2017-09-23T15:56:35.701Z,4.10
2017-09-23T15:59:03.320Z,4.43
2017-09-23T16:01:30.994Z,3.40
2017-09-23T16:03:58.611Z,3.67
2017-09-23T16:06:26.231Z,4.80
2017-09-23T16:08:53.905Z,3.47
2017-09-23T16:11:22.468Z,4.20
2017-09-23T16:13:50.088Z,4.07
2017-09-23T16:16:17.788Z,5.30
2017-09-23T16:18:45.425Z,4.50
2017-09-23T16:21:13.046Z,4.37
2017-09-23T16:23:40.717Z,4.70
2017-09-23T16:26:08.341Z,4.27
2017-09-23T16:28:35.966Z,4.33
2017-09-23T16:33:44.186Z,4.47
2017-09-23T16:36:11.871Z,3.90
2017-09-23T16:38:39.490Z,4.07
2017-09-23T16:41:07.201Z,4.17
2017-09-23T16:43:34.783Z,4.23
2017-09-23T16:46:02.395Z,3.70
2017-09-23T16:48:30.016Z,4.10
2017-09-23T16:50:57.691Z,4.00
2017-09-23T16:53:25.306Z,4.43
2017-09-23T16:55:52.927Z,4.60
2017-09-23T16:58:21.442Z,5.10
2017-09-23T17:00:49.071Z,4.80
2017-09-23T17:03:17.629Z,5.03
2017-09-23T17:05:45.310Z,5.33
2017-09-23T17:08:12.930Z,5.07
2017-09-23T17:10:40.539Z,5.20
2017-09-23T17:13:08.260Z,5.60
2017-09-23T17:15:35.879Z,5.80
2017-09-23T17:18:04.316Z,5.70
2017-09-23T17:20:31.996Z,6.37
2017-09-23T17:22:59.612Z,6.53
2017-09-23T17:25:27.232Z,6.20
2017-09-23T17:27:54.923Z,6.57
2017-09-23T17:30:22.540Z,6.73
2017-09-23T17:32:50.164Z,5.87
2017-09-23T17:35:17.836Z,5.83
2017-09-23T17:37:45.482Z,6.30
2017-09-23T17:40:13.386Z,5.50
2017-09-23T17:42:41.069Z,5.80
2017-09-23T17:45:08.703Z,6.83
2017-09-23T17:47:36.334Z,6.20
2017-09-23T17:50:04.024Z,6.97
2017-09-23T17:52:31.650Z,6.57
2017-09-23T17:54:59.371Z,6.37
2017-09-23T18:00:06.127Z,5.90
2017-09-23T18:02:33.837Z,6.00
2017-09-23T18:05:01.463Z,6.20
2017-09-23T18:07:29.107Z,5.53
2017-09-23T18:09:56.777Z,5.43
2017-09-23T18:12:24.396Z,6.27
2017-09-23T18:14:52.014Z,5.53
2017-09-23T18:17:19.690Z,6.00
2017-09-23T18:19:47.312Z,6.37
2017-09-23T18:22:14.935Z,6.50
2017-09-23T18:24:42.639Z,5.30
2017-09-23T18:27:10.261Z,5.23
2017-09-23T18:29:37.875Z,6.13
2017-09-23T18:32:05.553Z,7.93
2017-09-23T18:34:33.172Z,7.87
2017-09-23T18:37:00.797Z,10.13
2017-09-23T18:39:28.482Z,9.30
2017-09-23T18:41:56.112Z,8.83
2017-09-23T18:44:23.727Z,9.00
2017-09-23T18:46:51.397Z,7.67
2017-09-23T18:49:19.024Z,7.50
2017-09-23T18:51:46.659Z,7.63
2017-09-23T18:54:14.346Z,7.23
2017-09-23T18:56:41.967Z,6.40
2017-09-23T18:59:09.620Z,6.37
2017-09-23T19:01:37.269Z,7.10
2017-09-23T19:04:04.892Z,9.30
2017-09-23T19:06:33.261Z,7.27
2017-09-23T19:09:01.793Z,7.43
2017-09-23T19:11:29.417Z,7.27
2017-09-23T19:13:57.023Z,7.17
2017-09-23T19:16:24.702Z,7.50
2017-09-23T19:18:52.328Z,6.60
2017-09-23T19:21:19.945Z,7.53
2017-09-23T19:23:47.621Z,8.20
2017-09-23T19:28:54.399Z,8.10
2017-09-23T19:31:22.058Z,7.53
2017-09-23T19:33:49.680Z,7.80
2017-09-23T19:36:17.350Z,7.23
2017-09-23T19:38:44.964Z,6.53
2017-09-23T19:41:12.582Z,6.97
2017-09-23T19:43:40.987Z,7.00
2017-09-23T19:46:08.620Z,6.83
2017-09-23T19:48:37.037Z,6.47
2017-09-23T19:51:04.703Z,6.77
2017-09-23T19:53:32.329Z,6.30
2017-09-23T19:56:00.066Z,6.70
2017-09-23T19:58:27.647Z,7.97
2017-09-23T20:00:55.272Z,9.43
2017-09-23T20:03:22.889Z,9.43
2017-09-23T20:05:50.586Z,8.43
2017-09-23T20:08:18.213Z,7.60
2017-09-23T20:10:45.836Z,7.13
2017-09-23T20:13:13.512Z,7.50
2017-09-23T20:15:41.130Z,6.57
2017-09-23T20:18:08.747Z,7.13
2017-09-23T20:20:36.426Z,7.70
2017-09-23T20:23:04.051Z,8.80
2017-09-23T20:25:31.684Z,8.00
2017-09-23T20:27:59.380Z,7.83
2017-09-23T20:30:27.008Z,7.00
2017-09-23T20:32:54.631Z,7.97
2017-09-23T20:35:22.297Z,7.20
2017-09-23T20:37:49.930Z,6.53
2017-09-23T20:40:17.542Z,6.07
2017-09-23T20:42:46.176Z,6.80
2017-09-23T20:45:13.803Z,5.83
2017-09-23T20:47:41.416Z,7.47
2017-09-23T20:50:09.091Z,7.57
2017-09-23T20:55:15.883Z,7.05
2017-09-23T20:57:43.519Z,6.40
2017-09-23T21:00:11.148Z,6.83
2017-09-23T21:02:38.815Z,6.57
2017-09-23T21:05:06.432Z,7.00
2017-09-23T21:07:34.266Z,7.80
2017-09-23T21:10:02.224Z,8.00
2017-09-23T21:12:29.844Z,6.77
2017-09-23T21:14:57.489Z,7.60
2017-09-23T21:17:25.167Z,8.03
2017-09-23T21:19:53.060Z,8.50
2017-09-23T21:22:20.713Z,8.00
2017-09-23T21:24:48.590Z,8.00
2017-09-23T21:27:16.206Z,6.93
2017-09-23T21:29:43.818Z,8.73
2017-09-23T21:32:11.502Z,8.30
2017-09-23T21:34:39.121Z,8.37
2017-09-23T21:37:06.737Z,8.13
2017-09-23T21:39:34.424Z,7.93
2017-09-23T21:42:02.096Z,7.80
2017-09-23T21:44:29.713Z,7.77
2017-09-23T21:46:57.414Z,7.40
2017-09-23T21:49:25.034Z,7.40
2017-09-23T21:51:52.665Z,7.03
2017-09-23T21:54:20.676Z,7.87
2017-09-23T21:56:48.638Z,7.90
2017-09-23T21:59:16.133Z,7.83
2017-09-23T22:01:44.002Z,7.30
2017-09-23T22:04:11.609Z,7.57
2017-09-23T22:06:39.231Z,8.13
2017-09-23T22:09:06.943Z,7.60
2017-09-23T22:11:35.279Z,8.03
2017-09-23T22:14:02.895Z,8.13
2017-09-23T22:16:30.568Z,7.07
2017-09-23T22:21:37.401Z,8.40
2017-09-23T22:24:05.017Z,7.67
2017-09-23T22:26:32.630Z,8.00
2017-09-23T22:29:01.508Z,8.37
2017-09-23T22:31:29.060Z,8.80
2017-09-23T22:34:00.262Z,8.57
2017-09-23T22:36:27.680Z,8.07
2017-09-23T22:38:55.304Z,8.00
2017-09-23T22:41:22.925Z,8.20
2017-09-23T22:43:50.608Z,7.70
2017-09-23T22:46:18.232Z,8.50
2017-09-23T22:48:45.851Z,7.33
2017-09-23T22:51:13.550Z,8.37
2017-09-23T22:53:41.168Z,8.30
2017-09-23T22:56:08.786Z,7.60
2017-09-23T22:58:36.475Z,8.27
2017-09-23T23:01:04.099Z,7.93
2017-09-23T23:03:31.715Z,8.93
2017-09-23T23:05:59.391Z,9.27
2017-09-23T23:08:27.009Z,9.43
2017-09-23T23:10:54.647Z,7.97
2017-09-23T23:13:22.393Z,7.80
2017-09-23T23:15:50.017Z,8.13
2017-09-23T23:18:17.639Z,7.97
2017-09-23T23:20:45.315Z,8.17
2017-09-23T23:23:12.935Z,8.53
2017-09-23T23:25:40.554Z,7.67
2017-09-23T23:28:08.258Z,8.37
2017-09-23T23:30:35.876Z,7.60
2017-09-23T23:33:03.500Z,9.40
2017-09-23T23:35:31.174Z,8.63
2017-09-23T23:37:58.793Z,9.67
2017-09-23T23:40:26.419Z,8.57
2017-09-23T23:42:54.092Z,8.43
2017-09-23T23:48:02.872Z,9.20
2017-09-23T23:50:30.483Z,9.13
2017-09-23T23:52:58.109Z,9.13
2017-09-23T23:55:25.804Z,9.03
2017-09-23T23:57:53.433Z,9.13
